createdAt,value
2018-09-15T00:00:39.411Z,101705.80
2018-09-15T00:03:08.271Z,101706.38
2018-09-15T00:05:36.894Z,101706.27
2018-09-15T00:08:05.492Z,101702.75
2018-09-15T00:10:34.680Z,101707.50
2018-09-15T00:13:03.295Z,101706.56
2018-09-15T00:15:32.402Z,101702.91
2018-09-15T00:18:02.776Z,101696.13
2018-09-15T00:20:31.935Z,101705.54
2018-09-15T00:23:00.391Z,101703.55
2018-09-15T00:25:28.746Z,101704.89
2018-09-15T00:27:57.146Z,101702.00
2018-09-15T00:30:25.573Z,101700.95
2018-09-15T00:32:54.088Z,101702.28
2018-09-15T00:35:22.577Z,101701.33
2018-09-15T00:37:51.255Z,101706.38
2018-09-15T00:40:19.846Z,101700.88
2018-09-15T00:42:48.506Z,101702.96
2018-09-15T00:45:17.075Z,101703.66
2018-09-15T00:47:45.608Z,101694.25
2018-09-15T00:50:14.236Z,101699.28
2018-09-15T00:52:42.791Z,101698.53
2018-09-15T00:55:11.821Z,101694.48
2018-09-15T00:57:40.415Z,101701.89
2018-09-15T01:00:10.589Z,101700.84
2018-09-15T01:02:39.317Z,101701.31
2018-09-15T01:05:08.262Z,101694.71
2018-09-15T01:07:36.993Z,101703.36
2018-09-15T01:10:06.345Z,101697.63
2018-09-15T01:12:41.596Z,101696.12
2018-09-15T01:15:10.347Z,101698.67
2018-09-15T01:17:38.828Z,101698.78
2018-09-15T01:20:07.545Z,101697.22
2018-09-15T01:22:36.249Z,101700.61
2018-09-15T01:25:04.794Z,101697.14
2018-09-15T01:27:33.239Z,101696.16
2018-09-15T01:30:01.897Z,101691.46
2018-09-15T01:32:30.428Z,101686.02
2018-09-15T01:34:59.143Z,101691.34
2018-09-15T01:37:27.708Z,101691.77
2018-09-15T01:39:56.204Z,101684.30
2018-09-15T01:42:25.565Z,101687.87
2018-09-15T01:44:54.164Z,101689.95
2018-09-15T01:47:22.603Z,101690.31
2018-09-15T01:49:51.103Z,101687.81
2018-09-15T01:52:20.251Z,101679.93
2018-09-15T01:54:48.766Z,101687.91
2018-09-15T01:57:17.344Z,101685.02
2018-09-15T01:59:46.269Z,101681.84
2018-09-15T02:02:14.659Z,101686.19
2018-09-15T02:04:43.453Z,101682.20
2018-09-15T02:07:11.982Z,101689.15
2018-09-15T02:09:40.901Z,101697.87
2018-09-15T02:12:09.515Z,101688.20
2018-09-15T02:14:38.482Z,101688.89
2018-09-15T02:17:07.108Z,101687.33
2018-09-15T02:19:35.589Z,101687.27
2018-09-15T02:22:04.155Z,101683.44
2018-09-15T02:24:32.639Z,101682.91
2018-09-15T02:27:01.218Z,101689.62
2018-09-15T02:29:29.856Z,101680.32
2018-09-15T02:31:58.363Z,101680.97
2018-09-15T02:34:26.942Z,101680.77
2018-09-15T02:36:55.470Z,101675.88
2018-09-15T02:39:23.867Z,101678.54
2018-09-15T02:41:52.323Z,101679.64
2018-09-15T02:44:20.738Z,101679.98
2018-09-15T02:46:49.246Z,101680.05
2018-09-15T02:49:17.682Z,101678.05
2018-09-15T02:51:46.103Z,101681.29
2018-09-15T02:54:14.723Z,101685.64
2018-09-15T02:56:44.107Z,101687.00
2018-09-15T02:59:12.688Z,101681.36
2018-09-15T03:01:41.303Z,101686.91
2018-09-15T03:04:09.873Z,101679.47
2018-09-15T03:06:39.194Z,101685.30
2018-09-15T03:09:10.823Z,101690.63
2018-09-15T03:11:39.223Z,101685.14
2018-09-15T03:14:07.727Z,101680.13
2018-09-15T03:16:37.132Z,101678.58
2018-09-15T03:19:05.629Z,101682.70
2018-09-15T03:21:33.982Z,101683.02
2018-09-15T03:24:02.448Z,101687.07
2018-09-15T03:26:32.001Z,101688.17
2018-09-15T03:29:00.499Z,101680.87
2018-09-15T03:31:29.160Z,101682.84
2018-09-15T03:33:57.529Z,101680.86
2018-09-15T03:36:26.103Z,101673.17
2018-09-15T03:38:54.508Z,101671.63
2018-09-15T03:41:22.946Z,101672.00
2018-09-15T03:43:51.377Z,101674.36
2018-09-15T03:46:20.009Z,101670.89
2018-09-15T03:48:48.443Z,101673.84
2018-09-15T03:51:16.913Z,101677.40
2018-09-15T03:53:45.412Z,101678.14
2018-09-15T03:56:14.128Z,101679.77
2018-09-15T03:58:42.572Z,101679.68
2018-09-15T04:01:11.064Z,101682.22
2018-09-15T04:03:39.507Z,101684.68
2018-09-15T04:06:07.958Z,101687.68
2018-09-15T04:08:36.515Z,101682.29
2018-09-15T04:11:04.884Z,101689.02
2018-09-15T04:13:33.362Z,101689.02
2018-09-15T04:16:01.881Z,101696.66
2018-09-15T04:18:30.240Z,101692.26
2018-09-15T04:20:58.822Z,101692.38
2018-09-15T04:23:27.165Z,101695.77
2018-09-15T04:25:55.663Z,101699.61
2018-09-15T04:28:24.205Z,101695.33
2018-09-15T04:30:52.634Z,101698.34
2018-09-15T04:33:20.993Z,101706.09
2018-09-15T04:35:49.375Z,101705.40
2018-09-15T04:38:17.781Z,101715.21
2018-09-15T04:40:46.206Z,101706.47
2018-09-15T04:43:14.656Z,101712.88
2018-09-15T04:45:43.111Z,101719.30
2018-09-15T04:48:11.740Z,101725.73
2018-09-15T04:50:40.212Z,101719.09
2018-09-15T04:53:09.601Z,101717.87
2018-09-15T04:55:37.958Z,101716.09
2018-09-15T04:58:06.388Z,101724.58
2018-09-15T05:00:35.109Z,101718.53
2018-09-15T05:03:03.536Z,101713.73
2018-09-15T05:05:31.978Z,101721.63
2018-09-15T05:08:00.425Z,101711.66
2018-09-15T05:10:29.109Z,101713.12
2018-09-15T05:12:57.783Z,101714.97
2018-09-15T05:15:26.195Z,101721.47
2018-09-15T05:17:54.539Z,101718.37
2018-09-15T05:20:23.067Z,101729.36
2018-09-15T05:22:51.479Z,101730.98
2018-09-15T05:25:20.064Z,101723.33
2018-09-15T05:27:49.092Z,101731.57
2018-09-15T05:30:17.658Z,101736.40
2018-09-15T05:32:46.125Z,101745.88
2018-09-15T05:35:14.660Z,101746.32
2018-09-15T05:37:43.157Z,101749.67
2018-09-15T05:40:12.413Z,101750.90
2018-09-15T05:42:40.807Z,101744.63
2018-09-15T05:45:09.240Z,101751.81
2018-09-15T05:47:37.818Z,101762.55
2018-09-15T05:50:06.612Z,101760.22
2018-09-15T05:52:35.023Z,101757.41
2018-09-15T05:55:03.415Z,101769.89
2018-09-15T05:57:31.853Z,101761.98
2018-09-15T06:00:00.270Z,101769.73
2018-09-15T06:02:28.759Z,101773.93
2018-09-15T06:04:57.221Z,101777.40
2018-09-15T06:07:25.754Z,101785.45
2018-09-15T06:09:54.427Z,101794.23
2018-09-15T06:12:23.028Z,101796.42
2018-09-15T06:14:51.444Z,101803.35
2018-09-15T06:17:19.946Z,101802.03
2018-09-15T06:19:48.446Z,101801.08
2018-09-15T06:22:17.183Z,101816.37
2018-09-15T06:24:45.716Z,101813.31
2018-09-15T06:27:14.774Z,101820.91
2018-09-15T06:29:44.332Z,101823.00
2018-09-15T06:32:13.115Z,101825.48
2018-09-15T06:34:41.802Z,101828.45
2018-09-15T06:37:10.857Z,101833.23
2018-09-15T06:39:39.346Z,101836.10
2018-09-15T06:42:07.846Z,101844.66
2018-09-15T06:44:36.379Z,101834.63
2018-09-15T06:47:04.938Z,101834.79
2018-09-15T06:49:40.754Z,101835.81
2018-09-15T06:55:57.624Z,101833.89
2018-09-15T06:58:53.647Z,101837.61
2018-09-15T07:01:47.321Z,101839.14
2018-09-15T07:16:40.470Z,101849.80
2018-09-15T07:29:05.278Z,101859.99
2018-09-15T07:31:39.913Z,101866.53
2018-09-15T07:34:10.838Z,101864.60
2018-09-15T07:36:41.620Z,101872.09
2018-09-15T07:42:52.581Z,101886.66
2018-09-15T07:49:09.412Z,101894.32
2018-09-15T07:53:56.447Z,101900.75
2018-09-15T07:56:27.340Z,101903.28
2018-09-15T07:58:57.454Z,101897.41
2018-09-15T08:01:26.150Z,101899.34
2018-09-15T08:03:55.967Z,101908.09
2018-09-15T08:06:24.442Z,101902.11
2018-09-15T08:08:52.983Z,101902.35
2018-09-15T08:11:21.527Z,101904.36
2018-09-15T08:13:50.493Z,101909.06
2018-09-15T08:16:24.829Z,101909.86
2018-09-15T08:19:10.884Z,101907.04
2018-09-15T08:21:47.413Z,101909.77
2018-09-15T08:27:09.583Z,101907.47
2018-09-15T08:29:52.307Z,101907.09
2018-09-15T08:32:30.169Z,101916.84
2018-09-15T08:35:11.859Z,101918.75
2018-09-15T08:37:40.506Z,101917.42
2018-09-15T08:40:13.076Z,101914.06
2018-09-15T08:42:43.565Z,101915.26
2018-09-15T08:46:41.588Z,101918.28
2018-09-15T08:49:11.551Z,101920.50
2018-09-15T08:51:40.927Z,101918.51
2018-09-15T08:54:17.986Z,101925.27
2018-09-15T08:56:47.795Z,101917.84
2018-09-15T08:59:16.299Z,101913.27
2018-09-15T09:01:45.100Z,101919.59
2018-09-15T09:04:17.533Z,101920.69
2018-09-15T09:06:54.655Z,101921.00
2018-09-15T09:09:30.969Z,101925.92
2018-09-15T09:12:07.498Z,101926.83
2018-09-15T09:17:29.226Z,101922.02
2018-09-15T09:20:08.984Z,101929.10
2018-09-15T09:22:52.454Z,101927.52
2018-09-15T09:25:36.979Z,101938.06
2018-09-15T09:28:22.101Z,101940.33
2018-09-15T09:30:57.497Z,101931.86
2018-09-15T09:33:46.380Z,101941.78
2018-09-15T09:36:32.016Z,101921.13
2018-09-15T09:39:21.216Z,101943.43
2018-09-15T09:42:02.887Z,101938.38
2018-09-15T09:44:44.881Z,101931.94
2018-09-15T09:47:32.773Z,101938.05
2018-09-15T09:50:16.886Z,101939.97
2018-09-15T09:52:48.640Z,101947.20
2018-09-15T09:55:54.843Z,101940.99
2018-09-15T10:12:47.654Z,101942.11
2018-09-15T10:19:06.506Z,101944.42
2018-09-15T10:26:10.585Z,101939.25
2018-09-15T10:29:10.709Z,101943.91
2018-09-15T10:32:04.235Z,101949.81
2018-09-15T10:38:07.082Z,101943.81
2018-09-15T11:07:49.028Z,101952.47
2018-09-15T11:16:26.373Z,101949.64
2018-09-15T11:19:20.589Z,101948.70
2018-09-15T11:22:18.711Z,101948.45
2018-09-15T11:28:06.730Z,101955.78
2018-09-15T11:30:58.104Z,101972.75
2018-09-15T11:33:56.113Z,101974.74
2018-09-15T11:36:49.867Z,101966.48
2018-09-15T11:39:40.193Z,101965.63
2018-09-15T11:45:52.356Z,101974.60
2018-09-15T11:49:15.890Z,101987.50
2018-09-15T11:52:12.046Z,101987.98
2018-09-15T11:55:00.164Z,101996.20
2018-09-15T11:57:46.448Z,102014.69
2018-09-15T12:01:37.208Z,102019.76
2018-09-15T12:04:14.873Z,102029.11
2018-09-15T12:41:55.076Z,102062.08
2018-09-15T12:47:34.858Z,102064.45
2018-09-15T12:50:07.457Z,102062.75
2018-09-15T12:55:27.171Z,102064.23
2018-09-15T12:57:56.581Z,102065.78
2018-09-15T13:00:26.396Z,102060.00
2018-09-15T13:02:57.268Z,102061.63
2018-09-15T13:05:25.917Z,102065.92
2018-09-15T13:08:00.878Z,102064.72
2018-09-15T13:10:30.399Z,102065.30
2018-09-15T13:13:03.075Z,102070.34
2018-09-15T13:15:34.075Z,102071.64
2018-09-15T13:18:02.895Z,102065.72
2018-09-15T13:20:34.027Z,102067.86
2018-09-15T13:23:05.867Z,102067.55
2018-09-15T13:25:36.951Z,102069.86
2018-09-15T13:28:15.590Z,102071.55
2018-09-15T13:30:46.090Z,102078.44
2018-09-15T13:33:16.615Z,102079.10
2018-09-15T13:35:47.595Z,102078.95
2018-09-15T13:38:21.027Z,102081.17
2018-09-15T13:40:51.840Z,102074.86
2018-09-15T13:43:27.192Z,102075.33
2018-09-15T13:45:59.196Z,102079.55
2018-09-15T13:48:34.166Z,102075.48
2018-09-15T13:51:09.645Z,102075.55
2018-09-15T13:53:40.575Z,102071.91
2018-09-15T13:56:15.220Z,102072.14
2018-09-15T13:58:46.049Z,102080.73
2018-09-15T14:04:12.247Z,102087.07
2018-09-15T14:12:53.926Z,102090.77
2018-09-15T14:15:43.819Z,102094.15
2018-09-15T14:28:01.896Z,102091.13
2018-09-15T14:53:29.233Z,102089.34
2018-09-15T14:56:27.126Z,102090.59
2018-09-15T14:59:34.998Z,102091.12
2018-09-15T15:05:41.500Z,102092.48
2018-09-15T15:08:44.735Z,102091.78
2018-09-15T15:11:42.666Z,102092.45
2018-09-15T16:33:32.030Z,102107.52
2018-09-15T16:36:18.296Z,102106.56
2018-09-15T16:42:05.267Z,102115.91
2018-09-15T16:44:57.369Z,102125.78
2018-09-15T17:11:26.431Z,102143.30
2018-09-15T17:17:08.257Z,102149.11
2018-09-15T17:19:49.033Z,102153.67
2018-09-15T17:28:10.156Z,102176.06
2018-09-15T17:59:05.868Z,102195.41
2018-09-15T18:02:07.764Z,102197.60
2018-09-15T18:04:55.494Z,102200.27
2018-09-15T18:07:38.579Z,102209.98
2018-09-15T18:10:08.665Z,102206.05
2018-09-15T18:12:54.727Z,102216.72
2018-09-15T18:15:33.375Z,102216.72
2018-09-15T18:18:06.640Z,102221.45
2018-09-15T18:34:23.782Z,102254.34
2018-09-15T18:39:35.545Z,102257.27
2018-09-15T18:42:04.963Z,102261.48
2018-09-15T18:44:36.690Z,102266.00
2018-09-15T18:47:05.445Z,102269.11
2018-09-15T18:49:35.121Z,102266.20
2018-09-15T18:52:03.911Z,102264.52
2018-09-15T18:54:32.789Z,102267.78
2018-09-15T18:57:02.238Z,102271.92
2018-09-15T18:59:32.943Z,102268.06
2018-09-15T19:02:03.349Z,102275.46
2018-09-15T19:04:33.072Z,102274.72
2018-09-15T19:07:05.442Z,102270.37
2018-09-15T19:09:52.989Z,102271.33
2018-09-15T19:19:32.074Z,102268.09
2018-09-15T19:22:15.699Z,102270.08
2018-09-15T19:25:14.760Z,102270.08
2018-09-15T19:30:57.442Z,102277.91
2018-09-15T19:33:42.420Z,102283.76
2018-09-15T19:36:38.638Z,102280.06
2018-09-15T19:39:32.816Z,102286.37
2018-09-15T19:42:22.341Z,102288.95
2018-09-15T19:45:20.389Z,102289.33
2018-09-15T19:48:16.609Z,102287.56
2018-09-15T19:51:22.144Z,102299.37
2018-09-15T19:58:16.373Z,102302.03
2018-09-15T20:04:38.198Z,102297.30
2018-09-15T20:07:26.918Z,102294.55
2018-09-15T20:13:16.823Z,102291.69
2018-09-15T20:18:39.231Z,102293.50
2018-09-15T20:21:24.067Z,102293.11
2018-09-15T20:24:22.332Z,102294.94
2018-09-15T20:27:21.195Z,102299.97
2018-09-15T20:57:35.437Z,102312.76
2018-09-15T21:10:05.807Z,102321.08
2018-09-15T21:12:54.582Z,102325.28
2018-09-15T21:18:42.930Z,102332.59
2018-09-15T21:24:25.529Z,102343.23
2018-09-15T21:27:21.983Z,102346.29
2018-09-15T21:33:26.644Z,102337.21
2018-09-15T21:36:11.665Z,102343.88
2018-09-15T21:39:04.642Z,102344.78
2018-09-15T21:48:04.049Z,102354.31
2018-09-15T21:54:11.939Z,102348.47
2018-09-15T21:57:01.236Z,102353.90
2018-09-15T22:45:16.505Z,102358.92
2018-09-15T22:48:07.093Z,102359.44
2018-09-15T22:50:48.501Z,102355.55
2018-09-15T22:53:38.814Z,102357.81
2018-09-15T22:56:26.231Z,102362.10
2018-09-15T22:59:09.090Z,102356.58
2018-09-15T23:02:00.936Z,102357.70
2018-09-15T23:04:43.732Z,102360.87
2018-09-15T23:07:34.403Z,102360.64
2018-09-15T23:13:39.959Z,102365.05
2018-09-15T23:16:41.614Z,102365.98
2018-09-15T23:22:25.401Z,102359.34
2018-09-15T23:25:16.871Z,102364.14
2018-09-15T23:28:12.887Z,102368.23
2018-09-15T23:33:58.591Z,102362.70
2018-09-15T23:36:49.236Z,102365.36
2018-09-15T23:39:42.329Z,102362.50
2018-09-15T23:42:27.250Z,102370.59
2018-09-15T23:45:21.783Z,102360.64
2018-09-15T23:48:12.634Z,102355.40
2018-09-15T23:50:57.589Z,102351.31
2018-09-15T23:53:40.344Z,102355.20
2018-09-15T23:56:29.474Z,102351.72
